Fort Collins High School, Colorado
Current Conditions -  °F | °C
As of 7:35 PM on Friday 24 Oct 2014 (Local Time) from KFNL Reporting Station
Clear Clear  
Wind Chill: 64°   Ceiling: Unl
Heat Index: 64°   Visibility: 1.5mi
Dew Point: 30°   Wind: 7mph
Humidity: 28%   Direction: 150°SSE
Pressure: 30.17"   Gusts: NA
Location:  40.54033°N, 105.0358°W
Report Text: KFNL 250135Z AUTO 15006KT 1 1/2SM CLR 18/M01 A3017 RMK AO1
Loading
Personal Weather Stations






























Interactive Weather Map
Tropical Storm Tracking
New forecast layout! Learn more

10-Day Weather Forecast

Advertisements
Track Severe Weather on mobile